sensor_id;sensor_type;location;lat;lon;timestamp;P1;durP1;ratioP1;P2;durP2;ratioP2
22332;SDS011;11334;36.986;-121.936;2022-12-11T00:02:05;7.63;;;1.90;;
22332;SDS011;11334;36.986;-121.936;2022-12-11T00:04:31;9.57;;;2.03;;
22332;SDS011;11334;36.986;-121.936;2022-12-11T00:06:58;4.57;;;2.13;;
22332;SDS011;11334;36.986;-121.936;2022-12-11T00:09:24;6.65;;;2.67;;
22332;SDS011;11334;36.986;-121.936;2022-12-11T00:11:50;6.55;;;2.00;;
22332;SDS011;11334;36.986;-121.936;2022-12-11T00:14:17;12.00;;;2.45;;
22332;SDS011;11334;36.986;-121.936;2022-12-11T00:16:43;8.32;;;2.60;;
22332;SDS011;11334;36.986;-121.936;2022-12-11T00:19:09;7.18;;;2.72;;
22332;SDS011;11334;36.986;-121.936;2022-12-11T00:21:35;9.40;;;2.28;;
22332;SDS011;11334;36.986;-121.936;2022-12-11T00:24:02;11.98;;;2.30;;
22332;SDS011;11334;36.986;-121.936;2022-12-11T00:26:28;10.30;;;2.40;;
22332;SDS011;11334;36.986;-121.936;2022-12-11T00:28:55;12.88;;;3.10;;
22332;SDS011;11334;36.986;-121.936;2022-12-11T00:31:21;12.30;;;3.50;;
22332;SDS011;11334;36.986;-121.936;2022-12-11T00:33:48;8.88;;;3.05;;
22332;SDS011;11334;36.986;-121.936;2022-12-11T00:36:17;16.73;;;3.35;;
22332;SDS011;11334;36.986;-121.936;2022-12-11T00:38:47;12.55;;;3.90;;
22332;SDS011;11334;36.986;-121.936;2022-12-11T00:41:14;14.30;;;3.10;;
22332;SDS011;11334;36.986;-121.936;2022-12-11T00:43:41;17.70;;;3.25;;
22332;SDS011;11334;36.986;-121.936;2022-12-11T00:46:07;13.50;;;3.42;;
22332;SDS011;11334;36.986;-121.936;2022-12-11T00:48:34;15.05;;;4.15;;
22332;SDS011;11334;36.986;-121.936;2022-12-11T00:51:00;13.80;;;3.90;;
22332;SDS011;11334;36.986;-121.936;2022-12-11T00:53:27;15.80;;;3.55;;
22332;SDS011;11334;36.986;-121.936;2022-12-11T00:55:53;13.23;;;3.50;;
22332;SDS011;11334;36.986;-121.936;2022-12-11T00:58:19;15.65;;;3.67;;
22332;SDS011;11334;36.986;-121.936;2022-12-11T01:00:46;19.05;;;4.85;;
22332;SDS011;11334;36.986;-121.936;2022-12-11T01:03:14;12.20;;;3.70;;
22332;SDS011;11334;36.986;-121.936;2022-12-11T01:05:41;16.92;;;3.63;;
22332;SDS011;11334;36.986;-121.936;2022-12-11T01:08:16;17.73;;;4.80;;
22332;SDS011;11334;36.986;-121.936;2022-12-11T01:10:43;22.83;;;4.20;;
22332;SDS011;11334;36.986;-121.936;2022-12-11T01:13:29;21.80;;;4.63;;
22332;SDS011;11334;36.986;-121.936;2022-12-11T01:15:55;24.58;;;6.25;;
22332;SDS011;11334;36.986;-121.936;2022-12-11T01:18:21;28.50;;;6.20;;
22332;SDS011;11334;36.986;-121.936;2022-12-11T01:20:48;30.90;;;5.82;;
22332;SDS011;11334;36.986;-121.936;2022-12-11T01:23:14;25.35;;;5.97;;
22332;SDS011;11334;36.986;-121.936;2022-12-11T01:25:41;19.90;;;4.72;;
22332;SDS011;11334;36.986;-121.936;2022-12-11T01:28:08;21.67;;;4.82;;
22332;SDS011;11334;36.986;-121.936;2022-12-11T01:30:34;21.48;;;4.50;;
22332;SDS011;11334;36.986;-121.936;2022-12-11T01:33:01;17.92;;;4.57;;
22332;SDS011;11334;36.986;-121.936;2022-12-11T01:35:28;22.17;;;4.57;;
22332;SDS011;11334;36.986;-121.936;2022-12-11T01:37:54;17.42;;;4.55;;
22332;SDS011;11334;36.986;-121.936;2022-12-11T01:40:20;22.20;;;4.13;;
22332;SDS011;11334;36.986;-121.936;2022-12-11T01:42:47;26.40;;;4.40;;
22332;SDS011;11334;36.986;-121.936;2022-12-11T01:47:58;18.95;;;3.78;;
22332;SDS011;11334;36.986;-121.936;2022-12-11T01:50:30;214.07;;;127.90;;
22332;SDS011;11334;36.986;-121.936;2022-12-11T01:53:00;25.73;;;11.18;;
22332;SDS011;11334;36.986;-121.936;2022-12-11T01:55:28;31.88;;;11.70;;
22332;SDS011;11334;36.986;-121.936;2022-12-11T01:57:54;326.48;;;243.70;;
22332;SDS011;11334;36.986;-121.936;2022-12-11T02:00:21;559.38;;;442.10;;
22332;SDS011;11334;36.986;-121.936;2022-12-11T02:02:47;173.65;;;125.05;;
22332;SDS011;11334;36.986;-121.936;2022-12-11T02:05:14;39.30;;;23.05;;
22332;SDS011;11334;36.986;-121.936;2022-12-11T02:07:42;29.95;;;15.65;;
22332;SDS011;11334;36.986;-121.936;2022-12-11T02:10:20;377.27;;;249.63;;
22332;SDS011;11334;36.986;-121.936;2022-12-11T02:12:55;162.98;;;123.95;;
22332;SDS011;11334;36.986;-121.936;2022-12-11T02:15:32;604.28;;;499.25;;
22332;SDS011;11334;36.986;-121.936;2022-12-11T02:20:37;64.68;;;43.72;;
22332;SDS011;11334;36.986;-121.936;2022-12-11T02:23:13;158.90;;;122.60;;
22332;SDS011;11334;36.986;-121.936;2022-12-11T02:28:48;293.13;;;263.67;;
22332;SDS011;11334;36.986;-121.936;2022-12-11T02:31:26;478.83;;;409.63;;
22332;SDS011;11334;36.986;-121.936;2022-12-11T02:36:51;189.38;;;165.85;;
22332;SDS011;11334;36.986;-121.936;2022-12-11T02:39:22;613.75;;;549.95;;
22332;SDS011;11334;36.986;-121.936;2022-12-11T02:41:51;214.70;;;174.10;;
22332;SDS011;11334;36.986;-121.936;2022-12-11T02:44:24;155.20;;;127.28;;
22332;SDS011;11334;36.986;-121.936;2022-12-11T02:46:53;287.80;;;252.27;;
22332;SDS011;11334;36.986;-121.936;2022-12-11T02:49:21;488.88;;;431.40;;
22332;SDS011;11334;36.986;-121.936;2022-12-11T02:51:48;210.38;;;164.98;;
22332;SDS011;11334;36.986;-121.936;2022-12-11T02:54:18;289.23;;;231.82;;
22332;SDS011;11334;36.986;-121.936;2022-12-11T02:57:00;299.63;;;248.98;;
22332;SDS011;11334;36.986;-121.936;2022-12-11T02:59:34;136.88;;;93.35;;
22332;SDS011;11334;36.986;-121.936;2022-12-11T03:02:06;121.78;;;74.25;;
22332;SDS011;11334;36.986;-121.936;2022-12-11T03:04:33;44.25;;;24.38;;
22332;SDS011;11334;36.986;-121.936;2022-12-11T03:07:05;30.30;;;16.25;;
22332;SDS011;11334;36.986;-121.936;2022-12-11T03:09:39;88.70;;;79.00;;
22332;SDS011;11334;36.986;-121.936;2022-12-11T03:12:06;361.65;;;281.55;;
22332;SDS011;11334;36.986;-121.936;2022-12-11T03:14:39;1523.47;;;926.08;;
22332;SDS011;11334;36.986;-121.936;2022-12-11T03:17:10;1173.10;;;785.70;;
22332;SDS011;11334;36.986;-121.936;2022-12-11T03:22:36;597.05;;;507.13;;
22332;SDS011;11334;36.986;-121.936;2022-12-11T03:25:14;92.60;;;66.43;;
22332;SDS011;11334;36.986;-121.936;2022-12-11T03:28:00;202.10;;;180.45;;
22332;SDS011;11334;36.986;-121.936;2022-12-11T03:30:35;48.22;;;37.83;;
22332;SDS011;11334;36.986;-121.936;2022-12-11T03:33:04;176.68;;;142.32;;
22332;SDS011;11334;36.986;-121.936;2022-12-11T03:35:36;79.28;;;53.60;;
22332;SDS011;11334;36.986;-121.936;2022-12-11T03:38:17;55.53;;;39.47;;
22332;SDS011;11334;36.986;-121.936;2022-12-11T03:40:49;31.70;;;18.73;;
22332;SDS011;11334;36.986;-121.936;2022-12-11T03:43:19;107.28;;;59.42;;
22332;SDS011;11334;36.986;-121.936;2022-12-11T03:45:47;73.10;;;41.95;;
22332;SDS011;11334;36.986;-121.936;2022-12-11T03:48:15;331.75;;;179.70;;
22332;SDS011;11334;36.986;-121.936;2022-12-11T03:50:43;53.70;;;29.90;;
22332;SDS011;11334;36.986;-121.936;2022-12-11T03:53:11;38.78;;;15.95;;
22332;SDS011;11334;36.986;-121.936;2022-12-11T03:55:37;93.57;;;46.42;;
22332;SDS011;11334;36.986;-121.936;2022-12-11T03:58:05;82.53;;;66.38;;
22332;SDS011;11334;36.986;-121.936;2022-12-11T04:00:31;35.65;;;19.63;;
22332;SDS011;11334;36.986;-121.936;2022-12-11T04:02:57;33.53;;;10.07;;
22332;SDS011;11334;36.986;-121.936;2022-12-11T04:05:40;24.63;;;9.50;;
22332;SDS011;11334;36.986;-121.936;2022-12-11T04:08:09;21.15;;;5.97;;
22332;SDS011;11334;36.986;-121.936;2022-12-11T04:10:35;20.55;;;6.32;;
22332;SDS011;11334;36.986;-121.936;2022-12-11T04:13:02;16.08;;;5.93;;
22332;SDS011;11334;36.986;-121.936;2022-12-11T04:15:28;18.70;;;3.90;;
22332;SDS011;11334;36.986;-121.936;2022-12-11T04:17:54;17.83;;;5.93;;
22332;SDS011;11334;36.986;-121.936;2022-12-11T04:20:39;13.38;;;6.13;;
22332;SDS011;11334;36.986;-121.936;2022-12-11T04:23:23;14.00;;;5.55;;
22332;SDS011;11334;36.986;-121.936;2022-12-11T04:26:09;15.82;;;5.80;;
22332;SDS011;11334;36.986;-121.936;2022-12-11T04:28:38;33.08;;;21.15;;
22332;SDS011;11334;36.986;-121.936;2022-12-11T04:31:05;18.85;;;7.78;;
22332;SDS011;11334;36.986;-121.936;2022-12-11T04:33:36;24.17;;;8.73;;
22332;SDS011;11334;36.986;-121.936;2022-12-11T04:36:02;19.17;;;5.90;;
22332;SDS011;11334;36.986;-121.936;2022-12-11T04:38:29;22.02;;;7.60;;
22332;SDS011;11334;36.986;-121.936;2022-12-11T04:40:59;18.75;;;5.75;;
22332;SDS011;11334;36.986;-121.936;2022-12-11T04:43:36;28.27;;;15.45;;
22332;SDS011;11334;36.986;-121.936;2022-12-11T04:46:05;21.65;;;5.60;;
22332;SDS011;11334;36.986;-121.936;2022-12-11T04:48:33;18.40;;;4.22;;
22332;SDS011;11334;36.986;-121.936;2022-12-11T04:51:00;19.55;;;5.25;;
22332;SDS011;11334;36.986;-121.936;2022-12-11T04:53:26;18.05;;;5.35;;
22332;SDS011;11334;36.986;-121.936;2022-12-11T04:55:53;18.17;;;7.32;;
22332;SDS011;11334;36.986;-121.936;2022-12-11T05:21:20;7.65;;;2.35;;
22332;SDS011;11334;36.986;-121.936;2022-12-11T05:23:46;7.18;;;1.98;;
22332;SDS011;11334;36.986;-121.936;2022-12-11T05:26:13;4.93;;;2.13;;
22332;SDS011;11334;36.986;-121.936;2022-12-11T05:28:43;5.70;;;1.90;;
22332;SDS011;11334;36.986;-121.936;2022-12-11T05:31:11;5.25;;;2.05;;
22332;SDS011;11334;36.986;-121.936;2022-12-11T05:33:42;9.35;;;3.20;;
22332;SDS011;11334;36.986;-121.936;2022-12-11T05:36:12;8.27;;;2.78;;
22332;SDS011;11334;36.986;-121.936;2022-12-11T05:38:47;9.35;;;2.45;;
22332;SDS011;11334;36.986;-121.936;2022-12-11T05:41:15;5.72;;;2.20;;
22332;SDS011;11334;36.986;-121.936;2022-12-11T05:43:43;10.95;;;2.55;;
22332;SDS011;11334;36.986;-121.936;2022-12-11T05:46:16;9.40;;;3.05;;
22332;SDS011;11334;36.986;-121.936;2022-12-11T05:48:45;8.93;;;2.70;;
22332;SDS011;11334;36.986;-121.936;2022-12-11T05:51:12;6.95;;;2.08;;
22332;SDS011;11334;36.986;-121.936;2022-12-11T05:53:41;7.40;;;2.13;;
22332;SDS011;11334;36.986;-121.936;2022-12-11T05:56:12;6.43;;;1.65;;
22332;SDS011;11334;36.986;-121.936;2022-12-11T05:58:43;5.28;;;2.00;;
22332;SDS011;11334;36.986;-121.936;2022-12-11T06:01:13;5.25;;;3.30;;
22332;SDS011;11334;36.986;-121.936;2022-12-11T06:03:41;6.72;;;1.88;;
22332;SDS011;11334;36.986;-121.936;2022-12-11T06:06:08;6.50;;;2.33;;
22332;SDS011;11334;36.986;-121.936;2022-12-11T06:08:34;7.18;;;3.25;;
22332;SDS011;11334;36.986;-121.936;2022-12-11T06:11:00;11.20;;;4.38;;
22332;SDS011;11334;36.986;-121.936;2022-12-11T06:13:27;16.65;;;4.93;;
22332;SDS011;11334;36.986;-121.936;2022-12-11T06:15:54;8.65;;;3.17;;
22332;SDS011;11334;36.986;-121.936;2022-12-11T06:18:24;11.43;;;3.55;;
22332;SDS011;11334;36.986;-121.936;2022-12-11T06:20:50;6.75;;;3.90;;
22332;SDS011;11334;36.986;-121.936;2022-12-11T06:23:16;9.45;;;4.13;;
22332;SDS011;11334;36.986;-121.936;2022-12-11T06:25:43;8.13;;;3.60;;
22332;SDS011;11334;36.986;-121.936;2022-12-11T06:28:09;9.93;;;3.00;;
22332;SDS011;11334;36.986;-121.936;2022-12-11T06:30:35;7.30;;;3.00;;
22332;SDS011;11334;36.986;-121.936;2022-12-11T06:33:02;11.18;;;3.15;;
22332;SDS011;11334;36.986;-121.936;2022-12-11T06:35:28;6.88;;;2.28;;
22332;SDS011;11334;36.986;-121.936;2022-12-11T06:37:54;5.93;;;2.15;;
22332;SDS011;11334;36.986;-121.936;2022-12-11T06:40:21;38.70;;;25.70;;
22332;SDS011;11334;36.986;-121.936;2022-12-11T06:42:47;13.65;;;5.15;;
22332;SDS011;11334;36.986;-121.936;2022-12-11T06:45:13;15.55;;;2.65;;
22332;SDS011;11334;36.986;-121.936;2022-12-11T06:47:39;14.02;;;2.97;;
22332;SDS011;11334;36.986;-121.936;2022-12-11T06:50:06;8.95;;;3.40;;
22332;SDS011;11334;36.986;-121.936;2022-12-11T06:52:32;11.57;;;3.17;;
22332;SDS011;11334;36.986;-121.936;2022-12-11T06:54:59;11.90;;;3.05;;
22332;SDS011;11334;36.986;-121.936;2022-12-11T06:57:25;12.65;;;3.53;;
22332;SDS011;11334;36.986;-121.936;2022-12-11T06:59:51;10.52;;;4.85;;
22332;SDS011;11334;36.986;-121.936;2022-12-11T07:02:18;11.98;;;6.07;;
22332;SDS011;11334;36.986;-121.936;2022-12-11T07:04:44;19.52;;;10.95;;
22332;SDS011;11334;36.986;-121.936;2022-12-11T07:07:11;26.80;;;10.52;;
22332;SDS011;11334;36.986;-121.936;2022-12-11T07:09:38;30.27;;;9.07;;
22332;SDS011;11334;36.986;-121.936;2022-12-11T07:12:06;20.98;;;9.63;;
22332;SDS011;11334;36.986;-121.936;2022-12-11T07:14:32;25.50;;;10.07;;
22332;SDS011;11334;36.986;-121.936;2022-12-11T07:16:59;13.13;;;6.70;;
22332;SDS011;11334;36.986;-121.936;2022-12-11T07:19:25;21.02;;;5.15;;
22332;SDS011;11334;36.986;-121.936;2022-12-11T07:21:51;11.90;;;3.92;;
22332;SDS011;11334;36.986;-121.936;2022-12-11T07:24:18;17.75;;;4.40;;
22332;SDS011;11334;36.986;-121.936;2022-12-11T07:26:44;9.80;;;3.67;;
22332;SDS011;11334;36.986;-121.936;2022-12-11T07:29:10;12.00;;;4.32;;
22332;SDS011;11334;36.986;-121.936;2022-12-11T07:31:37;11.45;;;4.63;;
22332;SDS011;11334;36.986;-121.936;2022-12-11T07:34:04;13.50;;;4.82;;
22332;SDS011;11334;36.986;-121.936;2022-12-11T07:36:32;15.80;;;8.98;;
22332;SDS011;11334;36.986;-121.936;2022-12-11T07:38:59;19.17;;;7.50;;
22332;SDS011;11334;36.986;-121.936;2022-12-11T07:41:25;29.95;;;10.60;;
22332;SDS011;11334;36.986;-121.936;2022-12-11T07:43:55;22.02;;;6.22;;
22332;SDS011;11334;36.986;-121.936;2022-12-11T07:46:24;7.43;;;1.45;;
22332;SDS011;11334;36.986;-121.936;2022-12-11T07:48:52;3.03;;;0.82;;
22332;SDS011;11334;36.986;-121.936;2022-12-11T07:54:11;3.13;;;0.90;;
22332;SDS011;11334;36.986;-121.936;2022-12-11T07:56:44;6.50;;;0.82;;
22332;SDS011;11334;36.986;-121.936;2022-12-11T07:59:13;4.53;;;1.10;;
22332;SDS011;11334;36.986;-121.936;2022-12-11T08:01:41;4.90;;;1.00;;
22332;SDS011;11334;36.986;-121.936;2022-12-11T08:04:09;3.75;;;1.45;;
22332;SDS011;11334;36.986;-121.936;2022-12-11T08:06:37;5.78;;;1.65;;
22332;SDS011;11334;36.986;-121.936;2022-12-11T08:09:05;7.55;;;1.42;;
22332;SDS011;11334;36.986;-121.936;2022-12-11T08:11:33;5.90;;;1.70;;
22332;SDS011;11334;36.986;-121.936;2022-12-11T08:13:59;6.05;;;1.35;;
22332;SDS011;11334;36.986;-121.936;2022-12-11T08:16:26;6.35;;;1.50;;
22332;SDS011;11334;36.986;-121.936;2022-12-11T08:18:53;9.02;;;2.30;;
22332;SDS011;11334;36.986;-121.936;2022-12-11T08:21:21;9.07;;;1.83;;
22332;SDS011;11334;36.986;-121.936;2022-12-11T08:23:48;9.45;;;1.65;;
22332;SDS011;11334;36.986;-121.936;2022-12-11T08:26:17;8.40;;;1.75;;
22332;SDS011;11334;36.986;-121.936;2022-12-11T08:28:45;8.90;;;1.73;;
22332;SDS011;11334;36.986;-121.936;2022-12-11T08:31:12;12.00;;;1.90;;
22332;SDS011;11334;36.986;-121.936;2022-12-11T08:33:39;7.43;;;1.67;;
22332;SDS011;11334;36.986;-121.936;2022-12-11T08:36:07;4.45;;;0.90;;
22332;SDS011;11334;36.986;-121.936;2022-12-11T08:38:35;4.53;;;1.17;;
22332;SDS011;11334;36.986;-121.936;2022-12-11T08:43:38;1.58;;;0.55;;
22332;SDS011;11334;36.986;-121.936;2022-12-11T08:46:05;0.60;;;0.35;;
22332;SDS011;11334;36.986;-121.936;2022-12-11T08:48:33;0.95;;;0.20;;
22332;SDS011;11334;36.986;-121.936;2022-12-11T08:51:00;2.05;;;0.20;;
22332;SDS011;11334;36.986;-121.936;2022-12-11T08:53:28;0.77;;;0.40;;
22332;SDS011;11334;36.986;-121.936;2022-12-11T08:56:04;4.20;;;0.50;;
22332;SDS011;11334;36.986;-121.936;2022-12-11T08:58:49;3.90;;;0.70;;
22332;SDS011;11334;36.986;-121.936;2022-12-11T09:01:18;3.92;;;0.70;;
22332;SDS011;11334;36.986;-121.936;2022-12-11T09:03:48;6.00;;;1.08;;
22332;SDS011;11334;36.986;-121.936;2022-12-11T09:06:17;5.38;;;0.80;;
22332;SDS011;11334;36.986;-121.936;2022-12-11T09:08:46;1.92;;;0.63;;
22332;SDS011;11334;36.986;-121.936;2022-12-11T09:11:16;5.72;;;0.98;;
22332;SDS011;11334;36.986;-121.936;2022-12-11T09:13:44;8.38;;;1.50;;
22332;SDS011;11334;36.986;-121.936;2022-12-11T09:16:12;6.53;;;1.73;;
22332;SDS011;11334;36.986;-121.936;2022-12-11T09:18:40;3.42;;;0.98;;
22332;SDS011;11334;36.986;-121.936;2022-12-11T09:21:08;3.13;;;0.90;;
22332;SDS011;11334;36.986;-121.936;2022-12-11T09:23:38;3.25;;;1.05;;
22332;SDS011;11334;36.986;-121.936;2022-12-11T09:26:09;5.15;;;1.80;;
22332;SDS011;11334;36.986;-121.936;2022-12-11T09:28:37;2.67;;;0.63;;
22332;SDS011;11334;36.986;-121.936;2022-12-11T09:31:13;2.78;;;0.80;;
22332;SDS011;11334;36.986;-121.936;2022-12-11T09:33:44;3.38;;;0.90;;
22332;SDS011;11334;36.986;-121.936;2022-12-11T09:36:14;3.10;;;0.90;;
22332;SDS011;11334;36.986;-121.936;2022-12-11T09:38:40;5.28;;;0.90;;
22332;SDS011;11334;36.986;-121.936;2022-12-11T09:44:12;2.28;;;0.82;;
22332;SDS011;11334;36.986;-121.936;2022-12-11T09:46:44;6.32;;;1.20;;
22332;SDS011;11334;36.986;-121.936;2022-12-11T09:51:53;8.52;;;1.30;;
22332;SDS011;11334;36.986;-121.936;2022-12-11T09:54:53;3.00;;;1.33;;
22332;SDS011;11334;36.986;-121.936;2022-12-11T10:00:11;3.38;;;1.13;;
22332;SDS011;11334;36.986;-121.936;2022-12-11T10:02:53;4.53;;;1.00;;
22332;SDS011;11334;36.986;-121.936;2022-12-11T10:08:44;4.72;;;0.98;;
22332;SDS011;11334;36.986;-121.936;2022-12-11T10:13:52;4.15;;;0.98;;
22332;SDS011;11334;36.986;-121.936;2022-12-11T10:16:34;3.50;;;0.93;;
22332;SDS011;11334;36.986;-121.936;2022-12-11T10:19:25;4.47;;;0.95;;
22332;SDS011;11334;36.986;-121.936;2022-12-11T10:21:54;3.47;;;0.90;;
22332;SDS011;11334;36.986;-121.936;2022-12-11T10:27:00;8.93;;;1.30;;
22332;SDS011;11334;36.986;-121.936;2022-12-11T10:32:58;5.22;;;1.20;;
22332;SDS011;11334;36.986;-121.936;2022-12-11T10:35:42;4.10;;;1.30;;
22332;SDS011;11334;36.986;-121.936;2022-12-11T10:40:45;3.05;;;1.33;;
22332;SDS011;11334;36.986;-121.936;2022-12-11T10:43:15;5.63;;;1.05;;
22332;SDS011;11334;36.986;-121.936;2022-12-11T10:45:51;12.35;;;1.88;;
22332;SDS011;11334;36.986;-121.936;2022-12-11T10:48:18;7.03;;;1.42;;
22332;SDS011;11334;36.986;-121.936;2022-12-11T10:50:54;5.72;;;2.00;;
22332;SDS011;11334;36.986;-121.936;2022-12-11T10:53:34;6.18;;;1.40;;
22332;SDS011;11334;36.986;-121.936;2022-12-11T10:56:00;6.35;;;1.92;;
22332;SDS011;11334;36.986;-121.936;2022-12-11T10:58:28;3.75;;;0.70;;
22332;SDS011;11334;36.986;-121.936;2022-12-11T11:01:20;5.65;;;1.50;;
22332;SDS011;11334;36.986;-121.936;2022-12-11T11:04:05;6.25;;;1.55;;
22332;SDS011;11334;36.986;-121.936;2022-12-11T11:06:45;4.43;;;0.98;;
22332;SDS011;11334;36.986;-121.936;2022-12-11T11:12:25;10.90;;;1.58;;
22332;SDS011;11334;36.986;-121.936;2022-12-11T11:15:03;4.30;;;1.20;;
22332;SDS011;11334;36.986;-121.936;2022-12-11T11:17:31;5.20;;;1.30;;
22332;SDS011;11334;36.986;-121.936;2022-12-11T11:20:11;5.15;;;1.63;;
22332;SDS011;11334;36.986;-121.936;2022-12-11T11:22:44;7.90;;;1.45;;
22332;SDS011;11334;36.986;-121.936;2022-12-11T11:25:18;2.47;;;0.90;;
22332;SDS011;11334;36.986;-121.936;2022-12-11T11:27:49;4.72;;;1.17;;
22332;SDS011;11334;36.986;-121.936;2022-12-11T11:32:57;4.22;;;1.00;;
22332;SDS011;11334;36.986;-121.936;2022-12-11T11:35:30;4.45;;;0.80;;
22332;SDS011;11334;36.986;-121.936;2022-12-11T11:38:16;4.20;;;1.13;;
22332;SDS011;11334;36.986;-121.936;2022-12-11T11:40:50;4.65;;;1.30;;
22332;SDS011;11334;36.986;-121.936;2022-12-11T11:45:56;6.43;;;1.30;;
22332;SDS011;11334;36.986;-121.936;2022-12-11T11:49:28;6.03;;;1.25;;
22332;SDS011;11334;36.986;-121.936;2022-12-11T11:52:09;4.32;;;1.27;;
22332;SDS011;11334;36.986;-121.936;2022-12-11T11:57:53;6.25;;;1.10;;
22332;SDS011;11334;36.986;-121.936;2022-12-11T12:00:26;3.83;;;1.15;;
22332;SDS011;11334;36.986;-121.936;2022-12-11T12:02:58;5.97;;;1.60;;
22332;SDS011;11334;36.986;-121.936;2022-12-11T12:14:19;10.45;;;1.73;;
22332;SDS011;11334;36.986;-121.936;2022-12-11T12:22:49;5.90;;;1.27;;
22332;SDS011;11334;36.986;-121.936;2022-12-11T12:25:52;4.30;;;1.20;;
22332;SDS011;11334;36.986;-121.936;2022-12-11T12:34:07;1.73;;;0.80;;
22332;SDS011;11334;36.986;-121.936;2022-12-11T12:47:38;6.50;;;1.05;;
22332;SDS011;11334;36.986;-121.936;2022-12-11T12:50:11;3.50;;;0.55;;
22332;SDS011;11334;36.986;-121.936;2022-12-11T12:52:40;2.88;;;0.60;;
22332;SDS011;11334;36.986;-121.936;2022-12-11T12:55:24;2.78;;;0.57;;
22332;SDS011;11334;36.986;-121.936;2022-12-11T12:58:00;4.78;;;1.40;;
22332;SDS011;11334;36.986;-121.936;2022-12-11T13:00:30;4.32;;;0.75;;
22332;SDS011;11334;36.986;-121.936;2022-12-11T13:08:27;4.20;;;0.80;;
22332;SDS011;11334;36.986;-121.936;2022-12-11T13:11:03;3.92;;;0.47;;
22332;SDS011;11334;36.986;-121.936;2022-12-11T13:13:42;6.78;;;1.13;;
22332;SDS011;11334;36.986;-121.936;2022-12-11T13:18:40;2.20;;;0.57;;
22332;SDS011;11334;36.986;-121.936;2022-12-11T13:24:13;6.88;;;0.55;;
22332;SDS011;11334;36.986;-121.936;2022-12-11T13:26:40;3.08;;;0.98;;
22332;SDS011;11334;36.986;-121.936;2022-12-11T13:34:38;4.55;;;0.93;;
22332;SDS011;11334;36.986;-121.936;2022-12-11T13:37:17;3.65;;;0.93;;
22332;SDS011;11334;36.986;-121.936;2022-12-11T13:39:46;4.50;;;0.73;;
22332;SDS011;11334;36.986;-121.936;2022-12-11T13:42:47;1.67;;;0.60;;
22332;SDS011;11334;36.986;-121.936;2022-12-11T13:45:20;1.95;;;0.77;;
22332;SDS011;11334;36.986;-121.936;2022-12-11T13:47:53;1.70;;;0.50;;
22332;SDS011;11334;36.986;-121.936;2022-12-11T13:50:24;2.20;;;0.57;;
22332;SDS011;11334;36.986;-121.936;2022-12-11T13:52:57;1.70;;;0.60;;
22332;SDS011;11334;36.986;-121.936;2022-12-11T13:57:52;4.47;;;0.82;;
22332;SDS011;11334;36.986;-121.936;2022-12-11T14:00:26;2.78;;;0.55;;
22332;SDS011;11334;36.986;-121.936;2022-12-11T14:03:01;6.63;;;1.77;;
22332;SDS011;11334;36.986;-121.936;2022-12-11T14:05:32;3.88;;;0.63;;
22332;SDS011;11334;36.986;-121.936;2022-12-11T14:08:01;4.75;;;0.82;;
22332;SDS011;11334;36.986;-121.936;2022-12-11T14:10:34;3.60;;;0.82;;
22332;SDS011;11334;36.986;-121.936;2022-12-11T14:13:03;1.88;;;0.70;;
22332;SDS011;11334;36.986;-121.936;2022-12-11T14:15:32;3.67;;;0.73;;
22332;SDS011;11334;36.986;-121.936;2022-12-11T14:18:01;7.45;;;1.10;;
22332;SDS011;11334;36.986;-121.936;2022-12-11T14:20:30;3.97;;;1.65;;
22332;SDS011;11334;36.986;-121.936;2022-12-11T14:25:41;2.70;;;0.65;;
22332;SDS011;11334;36.986;-121.936;2022-12-11T14:28:16;5.15;;;0.77;;
22332;SDS011;11334;36.986;-121.936;2022-12-11T14:30:46;4.72;;;0.70;;
22332;SDS011;11334;36.986;-121.936;2022-12-11T14:33:15;5.68;;;1.05;;
22332;SDS011;11334;36.986;-121.936;2022-12-11T14:35:43;1.10;;;0.50;;
22332;SDS011;11334;36.986;-121.936;2022-12-11T14:38:15;2.42;;;0.98;;
22332;SDS011;11334;36.986;-121.936;2022-12-11T14:40:56;3.08;;;1.00;;
22332;SDS011;11334;36.986;-121.936;2022-12-11T14:43:29;2.78;;;0.65;;
22332;SDS011;11334;36.986;-121.936;2022-12-11T14:46:01;2.60;;;0.75;;
22332;SDS011;11334;36.986;-121.936;2022-12-11T14:48:35;5.72;;;1.10;;
22332;SDS011;11334;36.986;-121.936;2022-12-11T14:51:12;2.40;;;0.68;;
22332;SDS011;11334;36.986;-121.936;2022-12-11T14:53:48;3.88;;;0.80;;
22332;SDS011;11334;36.986;-121.936;2022-12-11T14:56:18;0.98;;;0.50;;
22332;SDS011;11334;36.986;-121.936;2022-12-11T14:58:57;1.85;;;0.90;;
22332;SDS011;11334;36.986;-121.936;2022-12-11T15:01:34;2.05;;;0.57;;
22332;SDS011;11334;36.986;-121.936;2022-12-11T15:04:06;2.25;;;0.40;;
22332;SDS011;11334;36.986;-121.936;2022-12-11T15:06:48;1.42;;;0.60;;
22332;SDS011;11334;36.986;-121.936;2022-12-11T15:09:20;3.10;;;0.60;;
22332;SDS011;11334;36.986;-121.936;2022-12-11T15:11:54;1.67;;;0.57;;
22332;SDS011;11334;36.986;-121.936;2022-12-11T15:14:24;2.88;;;0.70;;
22332;SDS011;11334;36.986;-121.936;2022-12-11T15:16:52;4.13;;;0.50;;
22332;SDS011;11334;36.986;-121.936;2022-12-11T15:19:22;2.28;;;0.80;;
22332;SDS011;11334;36.986;-121.936;2022-12-11T15:22:01;2.50;;;0.50;;
22332;SDS011;11334;36.986;-121.936;2022-12-11T15:24:33;3.80;;;0.80;;
22332;SDS011;11334;36.986;-121.936;2022-12-11T15:27:03;2.90;;;0.57;;
22332;SDS011;11334;36.986;-121.936;2022-12-11T15:29:31;0.95;;;0.57;;
22332;SDS011;11334;36.986;-121.936;2022-12-11T15:34:35;3.67;;;0.90;;
22332;SDS011;11334;36.986;-121.936;2022-12-11T15:37:21;2.22;;;0.90;;
22332;SDS011;11334;36.986;-121.936;2022-12-11T15:39:51;2.53;;;0.93;;
22332;SDS011;11334;36.986;-121.936;2022-12-11T15:42:39;3.13;;;1.00;;
22332;SDS011;11334;36.986;-121.936;2022-12-11T15:45:07;4.80;;;0.75;;
22332;SDS011;11334;36.986;-121.936;2022-12-11T15:47:39;0.88;;;0.70;;
22332;SDS011;11334;36.986;-121.936;2022-12-11T15:50:16;2.22;;;0.65;;
22332;SDS011;11334;36.986;-121.936;2022-12-11T15:52:45;0.93;;;0.50;;
22332;SDS011;11334;36.986;-121.936;2022-12-11T15:55:13;1.05;;;0.55;;
22332;SDS011;11334;36.986;-121.936;2022-12-11T15:57:51;4.78;;;0.70;;
22332;SDS011;11334;36.986;-121.936;2022-12-11T16:00:23;2.75;;;0.73;;
22332;SDS011;11334;36.986;-121.936;2022-12-11T16:02:52;2.40;;;0.50;;
22332;SDS011;11334;36.986;-121.936;2022-12-11T16:05:19;3.03;;;0.52;;
22332;SDS011;11334;36.986;-121.936;2022-12-11T16:07:46;2.70;;;0.45;;
22332;SDS011;11334;36.986;-121.936;2022-12-11T16:10:17;1.48;;;0.40;;
22332;SDS011;11334;36.986;-121.936;2022-12-11T16:12:44;1.48;;;0.50;;
22332;SDS011;11334;36.986;-121.936;2022-12-11T16:15:11;1.17;;;0.47;;
22332;SDS011;11334;36.986;-121.936;2022-12-11T16:17:38;1.70;;;0.70;;
22332;SDS011;11334;36.986;-121.936;2022-12-11T16:20:07;1.88;;;0.70;;
22332;SDS011;11334;36.986;-121.936;2022-12-11T16:22:34;8.02;;;0.80;;
22332;SDS011;11334;36.986;-121.936;2022-12-11T16:25:01;2.88;;;0.60;;
22332;SDS011;11334;36.986;-121.936;2022-12-11T16:27:27;3.10;;;0.70;;
22332;SDS011;11334;36.986;-121.936;2022-12-11T16:29:53;0.80;;;0.40;;
22332;SDS011;11334;36.986;-121.936;2022-12-11T16:32:20;1.38;;;0.70;;